sensor_id;sensor_type;location;lat;lon;timestamp;P1;P2;P0
76049;PMS7003;64967;50.234;19.224;2024-03-02T00:00:07;64.33;51.00;34.00
76049;PMS7003;64967;50.234;19.224;2024-03-02T00:02:43;58.50;47.50;31.00
76049;PMS7003;64967;50.234;19.224;2024-03-02T00:05:14;63.33;49.00;30.00
76049;PMS7003;64967;50.234;19.224;2024-03-02T00:07:42;66.00;51.33;34.00
76049;PMS7003;64967;50.234;19.224;2024-03-02T00:10:11;59.00;43.75;28.00
76049;PMS7003;64967;50.234;19.224;2024-03-02T00:12:46;67.00;50.00;32.33
76049;PMS7003;64967;50.234;19.224;2024-03-02T00:17:56;62.75;43.75;27.75
76049;PMS7003;64967;50.234;19.224;2024-03-02T00:20:25;61.00;46.00;28.00
76049;PMS7003;64967;50.234;19.224;2024-03-02T00:22:55;68.33;51.33;31.00
76049;PMS7003;64967;50.234;19.224;2024-03-02T00:25:38;58.00;44.67;29.00
76049;PMS7003;64967;50.234;19.224;2024-03-02T00:30:52;54.75;43.00;27.00
76049;PMS7003;64967;50.234;19.224;2024-03-02T00:33:26;46.75;38.75;27.00
76049;PMS7003;64967;50.234;19.224;2024-03-02T00:35:56;70.33;52.33;33.00
76049;PMS7003;64967;50.234;19.224;2024-03-02T00:38:24;76.33;58.33;38.00
76049;PMS7003;64967;50.234;19.224;2024-03-02T00:40:50;72.67;56.33;38.00
76049;PMS7003;64967;50.234;19.224;2024-03-02T00:45:50;76.33;56.33;34.33
76049;PMS7003;64967;50.234;19.224;2024-03-02T00:48:17;87.67;62.67;38.67
76049;PMS7003;64967;50.234;19.224;2024-03-02T00:50:44;73.67;52.33;32.33
76049;PMS7003;64967;50.234;19.224;2024-03-02T00:53:11;57.33;44.00;29.00
76049;PMS7003;64967;50.234;19.224;2024-03-02T00:55:39;58.50;43.00;28.00
76049;PMS7003;64967;50.234;19.224;2024-03-02T00:58:10;47.00;38.50;24.00
76049;PMS7003;64967;50.234;19.224;2024-03-02T01:00:37;53.67;42.67;27.67
76049;PMS7003;64967;50.234;19.224;2024-03-02T01:03:04;53.33;43.33;28.00
76049;PMS7003;64967;50.234;19.224;2024-03-02T01:05:30;53.75;39.00;24.00
76049;PMS7003;64967;50.234;19.224;2024-03-02T01:07:57;43.75;37.50;24.00
76049;PMS7003;64967;50.234;19.224;2024-03-02T01:10:24;41.50;33.50;22.50
76049;PMS7003;64967;50.234;19.224;2024-03-02T01:12:52;42.75;37.00;24.25
76049;PMS7003;64967;50.234;19.224;2024-03-02T01:15:18;44.25;33.75;19.75
76049;PMS7003;64967;50.234;19.224;2024-03-02T01:17:45;44.00;38.50;27.00
76049;PMS7003;64967;50.234;19.224;2024-03-02T01:20:12;46.50;33.25;23.00
76049;PMS7003;64967;50.234;19.224;2024-03-02T01:22:39;30.75;26.75;19.00
76049;PMS7003;64967;50.234;19.224;2024-03-02T01:25:06;49.50;40.25;28.00
76049;PMS7003;64967;50.234;19.224;2024-03-02T01:27:35;63.67;48.67;29.00
76049;PMS7003;64967;50.234;19.224;2024-03-02T01:30:01;62.33;48.33;33.33
76049;PMS7003;64967;50.234;19.224;2024-03-02T01:32:28;49.75;40.75;27.25
76049;PMS7003;64967;50.234;19.224;2024-03-02T01:34:55;54.00;41.00;27.75
76049;PMS7003;64967;50.234;19.224;2024-03-02T01:37:22;52.33;40.33;28.00
76049;PMS7003;64967;50.234;19.224;2024-03-02T01:39:49;63.67;48.00;29.00
76049;PMS7003;64967;50.234;19.224;2024-03-02T01:42:16;55.25;40.50;27.00
76049;PMS7003;64967;50.234;19.224;2024-03-02T01:44:42;56.00;38.75;25.25
76049;PMS7003;64967;50.234;19.224;2024-03-02T01:47:09;40.75;37.25;24.25
76049;PMS7003;64967;50.234;19.224;2024-03-02T01:49:36;41.75;30.75;21.50
76049;PMS7003;64967;50.234;19.224;2024-03-02T01:52:05;40.25;37.25;23.50
76049;PMS7003;64967;50.234;19.224;2024-03-02T01:54:31;40.00;31.75;23.50
76049;PMS7003;64967;50.234;19.224;2024-03-02T01:56:58;48.00;37.00;26.00
76049;PMS7003;64967;50.234;19.224;2024-03-02T01:59:25;36.75;32.00;22.75
76049;PMS7003;64967;50.234;19.224;2024-03-02T02:01:53;12.00;8.75;2.75
76049;PMS7003;64967;50.234;19.224;2024-03-02T02:04:20;33.00;29.25;20.00
76049;PMS7003;64967;50.234;19.224;2024-03-02T02:06:53;28.25;27.00;19.50
76049;PMS7003;64967;50.234;19.224;2024-03-02T02:09:20;27.50;22.50;17.00
76049;PMS7003;64967;50.234;19.224;2024-03-02T02:11:47;27.75;24.75;18.25
76049;PMS7003;64967;50.234;19.224;2024-03-02T02:14:14;26.75;22.00;14.50
76049;PMS7003;64967;50.234;19.224;2024-03-02T02:16:41;24.00;20.00;15.50
76049;PMS7003;64967;50.234;19.224;2024-03-02T02:19:07;42.00;32.50;23.50
76049;PMS7003;64967;50.234;19.224;2024-03-02T02:21:35;37.75;33.50;23.25
76049;PMS7003;64967;50.234;19.224;2024-03-02T02:24:02;38.75;32.50;22.00
76049;PMS7003;64967;50.234;19.224;2024-03-02T02:26:30;38.00;33.75;22.25
76049;PMS7003;64967;50.234;19.224;2024-03-02T02:28:56;33.50;24.75;16.75
76049;PMS7003;64967;50.234;19.224;2024-03-02T02:31:23;33.25;30.00;21.25
76049;PMS7003;64967;50.234;19.224;2024-03-02T02:33:50;34.75;25.50;17.75
76049;PMS7003;64967;50.234;19.224;2024-03-02T02:36:16;32.50;25.75;18.25
76049;PMS7003;64967;50.234;19.224;2024-03-02T02:38:44;20.25;16.50;9.75
76049;PMS7003;64967;50.234;19.224;2024-03-02T02:41:13;17.50;15.75;12.00
76049;PMS7003;64967;50.234;19.224;2024-03-02T02:43:39;22.00;19.00;12.00
76049;PMS7003;64967;50.234;19.224;2024-03-02T02:46:06;23.00;16.25;10.75
76049;PMS7003;64967;50.234;19.224;2024-03-02T02:48:33;20.00;15.50;10.75
76049;PMS7003;64967;50.234;19.224;2024-03-02T02:51:00;43.75;34.50;23.50
76049;PMS7003;64967;50.234;19.224;2024-03-02T02:53:26;62.00;45.00;30.33
76049;PMS7003;64967;50.234;19.224;2024-03-02T02:55:53;55.33;41.00;28.00
76049;PMS7003;64967;50.234;19.224;2024-03-02T02:58:20;59.33;45.33;30.33
76049;PMS7003;64967;50.234;19.224;2024-03-02T03:00:46;50.67;41.00;26.33
76049;PMS7003;64967;50.234;19.224;2024-03-02T03:03:13;52.67;41.33;28.00
76049;PMS7003;64967;50.234;19.224;2024-03-02T03:05:40;56.00;41.00;26.00
76049;PMS7003;64967;50.234;19.224;2024-03-02T03:08:07;40.75;34.50;25.00
76049;PMS7003;64967;50.234;19.224;2024-03-02T03:10:34;50.50;39.50;25.50
76049;PMS7003;64967;50.234;19.224;2024-03-02T03:13:00;51.00;41.00;27.25
76049;PMS7003;64967;50.234;19.224;2024-03-02T03:15:27;46.25;37.00;27.00
76049;PMS7003;64967;50.234;19.224;2024-03-02T03:17:54;48.50;40.00;27.50
76049;PMS7003;64967;50.234;19.224;2024-03-02T03:20:21;15.67;8.00;0.00
76049;PMS7003;64967;50.234;19.224;2024-03-02T03:22:49;59.33;46.00;29.33
76049;PMS7003;64967;50.234;19.224;2024-03-02T03:25:15;56.33;45.00;27.33
76049;PMS7003;64967;50.234;19.224;2024-03-02T03:27:42;63.00;47.67;32.00
76049;PMS7003;64967;50.234;19.224;2024-03-02T03:30:09;56.00;45.00;32.67
76049;PMS7003;64967;50.234;19.224;2024-03-02T03:32:36;49.33;40.00;27.33
76049;PMS7003;64967;50.234;19.224;2024-03-02T03:35:03;58.67;45.00;30.33
76049;PMS7003;64967;50.234;19.224;2024-03-02T03:37:30;63.67;50.67;33.33
76049;PMS7003;64967;50.234;19.224;2024-03-02T03:40:01;43.25;35.75;23.50
76049;PMS7003;64967;50.234;19.224;2024-03-02T03:42:29;35.00;26.75;20.75
76049;PMS7003;64967;50.234;19.224;2024-03-02T03:44:56;48.50;37.50;26.00
76049;PMS7003;64967;50.234;19.224;2024-03-02T03:47:22;61.33;49.00;31.00
76049;PMS7003;64967;50.234;19.224;2024-03-02T03:49:49;63.33;48.33;30.33
76049;PMS7003;64967;50.234;19.224;2024-03-02T03:52:16;71.33;51.67;34.00
76049;PMS7003;64967;50.234;19.224;2024-03-02T03:54:42;61.67;48.00;32.00
76049;PMS7003;64967;50.234;19.224;2024-03-02T03:57:11;57.67;46.33;29.00
76049;PMS7003;64967;50.234;19.224;2024-03-02T03:59:37;57.00;41.33;28.00
76049;PMS7003;64967;50.234;19.224;2024-03-02T04:02:04;51.50;40.00;26.75
76049;PMS7003;64967;50.234;19.224;2024-03-02T04:04:31;48.50;39.00;26.00
76049;PMS7003;64967;50.234;19.224;2024-03-02T04:06:57;48.00;37.25;25.25
76049;PMS7003;64967;50.234;19.224;2024-03-02T04:09:24;36.50;33.00;21.50
76049;PMS7003;64967;50.234;19.224;2024-03-02T04:11:51;41.75;25.50;17.50
76049;PMS7003;64967;50.234;19.224;2024-03-02T04:14:18;31.00;25.00;16.50
76049;PMS7003;64967;50.234;19.224;2024-03-02T04:16:45;45.25;33.50;22.75
76049;PMS7003;64967;50.234;19.224;2024-03-02T04:19:11;16.50;10.75;0.00
76049;PMS7003;64967;50.234;19.224;2024-03-02T04:21:38;38.00;33.00;22.00
76049;PMS7003;64967;50.234;19.224;2024-03-02T04:24:05;39.75;34.50;23.00
76049;PMS7003;64967;50.234;19.224;2024-03-02T04:26:33;37.00;27.00;18.25
76049;PMS7003;64967;50.234;19.224;2024-03-02T04:29:00;43.50;36.75;25.50
76049;PMS7003;64967;50.234;19.224;2024-03-02T04:31:26;71.00;54.00;34.00
76049;PMS7003;64967;50.234;19.224;2024-03-02T04:33:53;49.00;42.00;27.67
76049;PMS7003;64967;50.234;19.224;2024-03-02T04:36:20;47.75;40.50;27.00
76049;PMS7003;64967;50.234;19.224;2024-03-02T04:38:50;40.50;37.25;25.00
76049;PMS7003;64967;50.234;19.224;2024-03-02T04:41:16;53.00;40.67;26.67
76049;PMS7003;64967;50.234;19.224;2024-03-02T04:43:43;38.25;34.00;24.25
76049;PMS7003;64967;50.234;19.224;2024-03-02T04:46:10;41.25;35.50;21.00
76049;PMS7003;64967;50.234;19.224;2024-03-02T04:48:37;42.75;36.50;27.00
76049;PMS7003;64967;50.234;19.224;2024-03-02T04:51:04;35.50;26.25;16.75
76049;PMS7003;64967;50.234;19.224;2024-03-02T04:53:31;41.00;36.00;26.00
76049;PMS7003;64967;50.234;19.224;2024-03-02T04:55:57;62.00;48.00;32.00
76049;PMS7003;64967;50.234;19.224;2024-03-02T04:58:50;57.67;44.00;27.33
76049;PMS7003;64967;50.234;19.224;2024-03-02T05:01:16;44.00;37.25;24.25
76049;PMS7003;64967;50.234;19.224;2024-03-02T05:03:44;43.50;35.00;22.75
76049;PMS7003;64967;50.234;19.224;2024-03-02T05:06:11;58.67;45.00;28.67
76049;PMS7003;64967;50.234;19.224;2024-03-02T05:08:38;48.00;40.50;26.50
76049;PMS7003;64967;50.234;19.224;2024-03-02T05:11:04;35.25;28.75;20.00
76049;PMS7003;64967;50.234;19.224;2024-03-02T05:13:49;32.50;27.75;16.00
76049;PMS7003;64967;50.234;19.224;2024-03-02T05:16:16;26.50;21.50;17.00
76049;PMS7003;64967;50.234;19.224;2024-03-02T05:18:43;26.75;18.25;12.25
76049;PMS7003;64967;50.234;19.224;2024-03-02T05:21:09;30.00;26.75;19.75
76049;PMS7003;64967;50.234;19.224;2024-03-02T05:23:37;24.50;22.00;17.00
76049;PMS7003;64967;50.234;19.224;2024-03-02T05:26:05;19.00;16.75;11.00
76049;PMS7003;64967;50.234;19.224;2024-03-02T05:28:32;29.75;22.75;14.50
76049;PMS7003;64967;50.234;19.224;2024-03-02T05:30:58;25.75;22.00;16.00
76049;PMS7003;64967;50.234;19.224;2024-03-02T05:33:25;26.75;23.25;16.00
76049;PMS7003;64967;50.234;19.224;2024-03-02T05:35:52;25.75;21.75;16.00
76049;PMS7003;64967;50.234;19.224;2024-03-02T05:38:19;13.75;12.00;8.25
76049;PMS7003;64967;50.234;19.224;2024-03-02T05:40:50;15.50;12.50;8.75
76049;PMS7003;64967;50.234;19.224;2024-03-02T05:43:17;20.50;17.50;13.00
76049;PMS7003;64967;50.234;19.224;2024-03-02T05:45:44;27.00;24.75;17.75
76049;PMS7003;64967;50.234;19.224;2024-03-02T05:48:11;37.00;32.25;22.50
76049;PMS7003;64967;50.234;19.224;2024-03-02T05:50:38;42.50;36.25;22.75
76049;PMS7003;64967;50.234;19.224;2024-03-02T05:53:04;34.00;28.00;20.50
76049;PMS7003;64967;50.234;19.224;2024-03-02T05:55:31;34.25;32.00;24.00
76049;PMS7003;64967;50.234;19.224;2024-03-02T05:57:58;19.25;15.00;6.75
76049;PMS7003;64967;50.234;19.224;2024-03-02T06:00:25;34.75;29.00;21.00
76049;PMS7003;64967;50.234;19.224;2024-03-02T06:02:51;45.25;35.00;20.50
76049;PMS7003;64967;50.234;19.224;2024-03-02T06:05:19;32.75;23.50;14.00
76049;PMS7003;64967;50.234;19.224;2024-03-02T06:07:45;40.50;34.50;23.75
76049;PMS7003;64967;50.234;19.224;2024-03-02T06:10:12;55.00;39.67;24.00
76049;PMS7003;64967;50.234;19.224;2024-03-02T06:12:40;74.67;52.67;34.33
76049;PMS7003;64967;50.234;19.224;2024-03-02T06:15:07;69.33;54.00;35.33
76049;PMS7003;64967;50.234;19.224;2024-03-02T06:17:36;63.33;51.00;33.67
76049;PMS7003;64967;50.234;19.224;2024-03-02T06:20:03;55.67;45.67;32.00
76049;PMS7003;64967;50.234;19.224;2024-03-02T06:22:31;66.67;51.67;34.00
76049;PMS7003;64967;50.234;19.224;2024-03-02T06:24:57;55.33;44.00;30.33
76049;PMS7003;64967;50.234;19.224;2024-03-02T06:27:24;65.50;47.25;31.25
76049;PMS7003;64967;50.234;19.224;2024-03-02T06:29:51;47.50;40.25;27.75
76049;PMS7003;64967;50.234;19.224;2024-03-02T06:32:17;60.75;44.25;29.00
76049;PMS7003;64967;50.234;19.224;2024-03-02T06:34:44;45.25;38.50;24.00
76049;PMS7003;64967;50.234;19.224;2024-03-02T06:37:11;43.00;35.75;24.00
76049;PMS7003;64967;50.234;19.224;2024-03-02T06:39:37;49.50;41.75;27.25
76049;PMS7003;64967;50.234;19.224;2024-03-02T06:42:05;44.25;38.00;26.75
76049;PMS7003;64967;50.234;19.224;2024-03-02T06:44:31;46.00;41.75;27.25
76049;PMS7003;64967;50.234;19.224;2024-03-02T06:46:58;47.50;38.25;25.00
76049;PMS7003;64967;50.234;19.224;2024-03-02T06:49:25;49.25;41.50;27.25
76049;PMS7003;64967;50.234;19.224;2024-03-02T06:51:51;56.25;45.75;29.00
76049;PMS7003;64967;50.234;19.224;2024-03-02T06:54:18;56.00;42.00;27.50
76049;PMS7003;64967;50.234;19.224;2024-03-02T06:56:45;39.75;32.50;20.75
76049;PMS7003;64967;50.234;19.224;2024-03-02T06:59:11;41.25;36.75;24.00
76049;PMS7003;64967;50.234;19.224;2024-03-02T07:01:38;40.25;33.75;24.50
76049;PMS7003;64967;50.234;19.224;2024-03-02T07:04:05;39.25;34.00;24.25
76049;PMS7003;64967;50.234;19.224;2024-03-02T07:06:33;58.75;46.50;30.25
76049;PMS7003;64967;50.234;19.224;2024-03-02T07:08:59;52.50;42.25;29.00
76049;PMS7003;64967;50.234;19.224;2024-03-02T07:11:26;54.75;42.50;27.25
76049;PMS7003;64967;50.234;19.224;2024-03-02T07:13:53;54.50;42.75;27.00
76049;PMS7003;64967;50.234;19.224;2024-03-02T07:16:20;51.50;42.00;24.75
76049;PMS7003;64967;50.234;19.224;2024-03-02T07:19:06;50.50;39.75;26.75
76049;PMS7003;64967;50.234;19.224;2024-03-02T07:21:33;49.50;39.00;25.50
76049;PMS7003;64967;50.234;19.224;2024-03-02T07:24:00;60.00;46.75;29.50
76049;PMS7003;64967;50.234;19.224;2024-03-02T07:26:29;56.00;43.00;27.50
76049;PMS7003;64967;50.234;19.224;2024-03-02T07:29:00;66.33;51.33;36.00
76049;PMS7003;64967;50.234;19.224;2024-03-02T07:31:27;51.00;38.75;26.00
76049;PMS7003;64967;50.234;19.224;2024-03-02T07:33:54;54.50;42.00;26.25
76049;PMS7003;64967;50.234;19.224;2024-03-02T07:36:21;41.50;37.25;26.00
76049;PMS7003;64967;50.234;19.224;2024-03-02T07:38:47;37.00;34.00;22.50
76049;PMS7003;64967;50.234;19.224;2024-03-02T07:41:16;31.00;25.75;18.00
76049;PMS7003;64967;50.234;19.224;2024-03-02T07:43:44;52.25;41.00;27.75
76049;PMS7003;64967;50.234;19.224;2024-03-02T07:46:10;45.00;37.00;25.00
76049;PMS7003;64967;50.234;19.224;2024-03-02T07:48:37;33.50;31.50;21.25
76049;PMS7003;64967;50.234;19.224;2024-03-02T07:51:05;32.75;25.00;15.00
76049;PMS7003;64967;50.234;19.224;2024-03-02T07:53:31;45.00;38.00;25.50
76049;PMS7003;64967;50.234;19.224;2024-03-02T07:55:58;50.75;40.25;27.75
76049;PMS7003;64967;50.234;19.224;2024-03-02T07:58:29;48.25;37.75;24.50
76049;PMS7003;64967;50.234;19.224;2024-03-02T08:00:56;37.50;34.00;24.25
76049;PMS7003;64967;50.234;19.224;2024-03-02T08:03:24;52.25;42.25;28.00
76049;PMS7003;64967;50.234;19.224;2024-03-02T08:05:51;51.75;37.50;26.00
76049;PMS7003;64967;50.234;19.224;2024-03-02T08:08:17;40.50;35.75;25.00
76049;PMS7003;64967;50.234;19.224;2024-03-02T08:10:44;29.25;23.75;16.25
76049;PMS7003;64967;50.234;19.224;2024-03-02T08:13:11;27.00;24.75;18.00
76049;PMS7003;64967;50.234;19.224;2024-03-02T08:15:38;41.50;38.25;27.00
76049;PMS7003;64967;50.234;19.224;2024-03-02T08:18:05;60.75;47.25;31.50
76049;PMS7003;64967;50.234;19.224;2024-03-02T08:20:31;48.50;39.50;26.25
76049;PMS7003;64967;50.234;19.224;2024-03-02T08:22:58;60.75;47.00;30.00
76049;PMS7003;64967;50.234;19.224;2024-03-02T08:25:25;54.00;41.75;30.25
76049;PMS7003;64967;50.234;19.224;2024-03-02T08:27:52;51.75;38.75;25.75
76049;PMS7003;64967;50.234;19.224;2024-03-02T08:30:18;53.50;42.25;29.75
76049;PMS7003;64967;50.234;19.224;2024-03-02T08:32:45;50.25;40.00;27.00
76049;PMS7003;64967;50.234;19.224;2024-03-02T08:35:13;48.50;38.50;27.00
76049;PMS7003;64967;50.234;19.224;2024-03-02T08:37:41;16.25;12.00;2.00
76049;PMS7003;64967;50.234;19.224;2024-03-02T08:40:08;49.25;39.25;26.00
76049;PMS7003;64967;50.234;19.224;2024-03-02T08:42:36;39.75;32.50;20.50
76049;PMS7003;64967;50.234;19.224;2024-03-02T08:45:03;48.00;38.25;26.25
76049;PMS7003;64967;50.234;19.224;2024-03-02T08:47:30;38.00;33.25;22.00
76049;PMS7003;64967;50.234;19.224;2024-03-02T08:49:57;31.00;27.50;19.00
76049;PMS7003;64967;50.234;19.224;2024-03-02T08:52:27;39.25;35.25;24.25
76049;PMS7003;64967;50.234;19.224;2024-03-02T08:54:53;36.75;33.75;22.50
76049;PMS7003;64967;50.234;19.224;2024-03-02T08:57:20;35.50;33.75;23.00
76049;PMS7003;64967;50.234;19.224;2024-03-02T08:59:47;37.50;27.50;18.75
76049;PMS7003;64967;50.234;19.224;2024-03-02T09:02:14;20.00;20.00;15.00
76049;PMS7003;64967;50.234;19.224;2024-03-02T09:04:41;21.00;18.00;10.25
76049;PMS7003;64967;50.234;19.224;2024-03-02T09:07:07;15.75;14.75;13.25
76049;PMS7003;64967;50.234;19.224;2024-03-02T09:09:34;24.75;22.00;16.00
76049;PMS7003;64967;50.234;19.224;2024-03-02T09:12:01;21.50;20.00;15.50
76049;PMS7003;64967;50.234;19.224;2024-03-02T09:14:28;26.50;23.00;15.50
76049;PMS7003;64967;50.234;19.224;2024-03-02T09:16:54;18.50;15.00;10.25
76049;PMS7003;64967;50.234;19.224;2024-03-02T09:19:21;22.00;18.00;14.25
76049;PMS7003;64967;50.234;19.224;2024-03-02T09:21:48;16.25;15.50;11.75
76049;PMS7003;64967;50.234;19.224;2024-03-02T09:24:15;28.50;27.00;20.00
76049;PMS7003;64967;50.234;19.224;2024-03-02T09:26:43;29.00;28.00;21.50
76049;PMS7003;64967;50.234;19.224;2024-03-02T09:29:10;38.50;30.25;22.25
76049;PMS7003;64967;50.234;19.224;2024-03-02T09:31:41;28.50;26.75;18.25
76049;PMS7003;64967;50.234;19.224;2024-03-02T09:34:08;34.50;30.50;21.75
76049;PMS7003;64967;50.234;19.224;2024-03-02T09:36:35;34.50;31.25;23.00
76049;PMS7003;64967;50.234;19.224;2024-03-02T09:39:01;53.25;44.00;30.75
76049;PMS7003;64967;50.234;19.224;2024-03-02T09:41:30;55.00;43.25;28.00
76049;PMS7003;64967;50.234;19.224;2024-03-02T09:43:58;43.75;38.50;25.25
76049;PMS7003;64967;50.234;19.224;2024-03-02T09:46:26;39.50;34.25;23.00
76049;PMS7003;64967;50.234;19.224;2024-03-02T09:48:52;55.50;44.75;30.00
76049;PMS7003;64967;50.234;19.224;2024-03-02T09:51:19;66.50;52.50;34.00
76049;PMS7003;64967;50.234;19.224;2024-03-02T09:53:46;66.00;49.75;33.00
76049;PMS7003;64967;50.234;19.224;2024-03-02T09:56:14;57.00;45.25;30.00
76049;PMS7003;64967;50.234;19.224;2024-03-02T09:58:44;46.00;37.25;26.25
76049;PMS7003;64967;50.234;19.224;2024-03-02T10:01:11;31.50;25.00;15.75
76049;PMS7003;64967;50.234;19.224;2024-03-02T10:03:38;42.50;33.50;25.00
76049;PMS7003;64967;50.234;19.224;2024-03-02T10:09:07;23.75;22.00;14.50
76049;PMS7003;64967;50.234;19.224;2024-03-02T10:11:34;30.25;29.25;20.75
76049;PMS7003;64967;50.234;19.224;2024-03-02T10:14:07;14.25;10.75;9.25
76049;PMS7003;64967;50.234;19.224;2024-03-02T10:16:36;19.00;17.00;14.00
76049;PMS7003;64967;50.234;19.224;2024-03-02T10:19:15;25.00;20.75;15.75
76049;PMS7003;64967;50.234;19.224;2024-03-02T10:21:47;14.75;13.50;9.00
76049;PMS7003;64967;50.234;19.224;2024-03-02T10:24:16;20.00;15.25;10.25
76049;PMS7003;64967;50.234;19.224;2024-03-02T10:26:43;18.25;16.25;12.00
76049;PMS7003;64967;50.234;19.224;2024-03-02T10:29:11;12.25;11.25;9.00
76049;PMS7003;64967;50.234;19.224;2024-03-02T10:31:38;15.00;14.25;10.00
76049;PMS7003;64967;50.234;19.224;2024-03-02T10:34:06;19.25;13.75;11.25
76049;PMS7003;64967;50.234;19.224;2024-03-02T10:36:34;15.50;15.50;10.75
76049;PMS7003;64967;50.234;19.224;2024-03-02T10:39:05;14.75;12.00;9.50
76049;PMS7003;64967;50.234;19.224;2024-03-02T10:41:34;15.50;11.50;9.50
76049;PMS7003;64967;50.234;19.224;2024-03-02T10:44:02;12.00;12.00;8.75
76049;PMS7003;64967;50.234;19.224;2024-03-02T10:46:30;15.00;13.25;9.00
76049;PMS7003;64967;50.234;19.224;2024-03-02T10:49:01;10.25;9.00;5.75
76049;PMS7003;64967;50.234;19.224;2024-03-02T10:51:33;16.00;12.50;8.75
76049;PMS7003;64967;50.234;19.224;2024-03-02T10:54:03;17.00;15.00;10.00
76049;PMS7003;64967;50.234;19.224;2024-03-02T10:56:31;15.00;13.25;10.75
76049;PMS7003;64967;50.234;19.224;2024-03-02T11:01:50;13.25;12.75;9.75
76049;PMS7003;64967;50.234;19.224;2024-03-02T11:04:24;15.75;11.50;8.50
76049;PMS7003;64967;50.234;19.224;2024-03-02T11:07:09;10.50;10.50;7.00
76049;PMS7003;64967;50.234;19.224;2024-03-02T11:09:38;17.25;15.50;10.00
76049;PMS7003;64967;50.234;19.224;2024-03-02T11:15:04;21.75;17.00;13.00
76049;PMS7003;64967;50.234;19.224;2024-03-02T11:17:37;17.50;13.25;10.75
76049;PMS7003;64967;50.234;19.224;2024-03-02T11:20:07;16.50;16.50;12.25
76049;PMS7003;64967;50.234;19.224;2024-03-02T11:22:37;12.25;11.25;9.00
76049;PMS7003;64967;50.234;19.224;2024-03-02T11:25:04;12.75;11.25;9.00
76049;PMS7003;64967;50.234;19.224;2024-03-02T11:33:01;12.00;10.25;8.00
76049;PMS7003;64967;50.234;19.224;2024-03-02T11:35:38;15.50;13.50;10.00
76049;PMS7003;64967;50.234;19.224;2024-03-02T11:38:14;17.50;16.75;14.00
76049;PMS7003;64967;50.234;19.224;2024-03-02T11:40:41;18.00;17.00;15.00
76049;PMS7003;64967;50.234;19.224;2024-03-02T11:43:08;27.75;20.25;16.25
76049;PMS7003;64967;50.234;19.224;2024-03-02T11:45:36;25.25;19.50;11.75
76049;PMS7003;64967;50.234;19.224;2024-03-02T11:48:08;22.25;20.25;13.25
76049;PMS7003;64967;50.234;19.224;2024-03-02T11:50:41;13.00;12.75;10.50
76049;PMS7003;64967;50.234;19.224;2024-03-02T11:53:16;16.25;14.50;10.50
76049;PMS7003;64967;50.234;19.224;2024-03-02T11:55:43;18.25;16.75;12.50
76049;PMS7003;64967;50.234;19.224;2024-03-02T11:58:13;11.00;10.00;6.00
76049;PMS7003;64967;50.234;19.224;2024-03-02T12:00:43;17.50;14.00;9.25
76049;PMS7003;64967;50.234;19.224;2024-03-02T12:03:12;16.50;16.00;11.00
76049;PMS7003;64967;50.234;19.224;2024-03-02T12:05:40;24.25;19.50;13.00
76049;PMS7003;64967;50.234;19.224;2024-03-02T12:08:07;19.00;18.00;12.25
76049;PMS7003;64967;50.234;19.224;2024-03-02T12:10:35;16.50;16.25;13.25
76049;PMS7003;64967;50.234;19.224;2024-03-02T12:13:03;22.25;19.75;12.50
76049;PMS7003;64967;50.234;19.224;2024-03-02T12:15:34;19.00;17.00;11.75
76049;PMS7003;64967;50.234;19.224;2024-03-02T12:18:03;15.00;13.75;10.50
76049;PMS7003;64967;50.234;19.224;2024-03-02T12:20:31;15.00;14.00;10.00
76049;PMS7003;64967;50.234;19.224;2024-03-02T12:22:59;20.25;17.50;10.25
76049;PMS7003;64967;50.234;19.224;2024-03-02T12:25:31;28.75;22.00;14.75
76049;PMS7003;64967;50.234;19.224;2024-03-02T12:28:00;18.50;16.50;11.00
76049;PMS7003;64967;50.234;19.224;2024-03-02T12:30:29;19.00;15.00;12.00
76049;PMS7003;64967;50.234;19.224;2024-03-02T12:32:57;19.25;16.00;11.25
76049;PMS7003;64967;50.234;19.224;2024-03-02T12:35:24;17.00;14.50;10.25
76049;PMS7003;64967;50.234;19.224;2024-03-02T12:37:52;20.00;13.50;7.00
76049;PMS7003;64967;50.234;19.224;2024-03-02T12:40:20;19.50;11.75;6.50
76049;PMS7003;64967;50.234;19.224;2024-03-02T12:42:49;25.75;21.75;15.50
76049;PMS7003;64967;50.234;19.224;2024-03-02T12:45:17;21.00;16.25;12.00
76049;PMS7003;64967;50.234;19.224;2024-03-02T12:47:51;21.50;18.75;13.75
76049;PMS7003;64967;50.234;19.224;2024-03-02T12:50:18;28.25;22.00;17.00
76049;PMS7003;64967;50.234;19.224;2024-03-02T12:52:52;25.75;21.25;16.75
76049;PMS7003;64967;50.234;19.224;2024-03-02T12:55:20;26.75;24.00;17.50
76049;PMS7003;64967;50.234;19.224;2024-03-02T12:57:51;19.75;18.25;13.00
76049;PMS7003;64967;50.234;19.224;2024-03-02T13:00:20;20.50;19.50;13.25
76049;PMS7003;64967;50.234;19.224;2024-03-02T13:02:49;23.25;19.25;14.50
76049;PMS7003;64967;50.234;19.224;2024-03-02T13:05:18;24.00;20.75;18.25
76049;PMS7003;64967;50.234;19.224;2024-03-02T13:07:47;31.50;24.00;18.00
76049;PMS7003;64967;50.234;19.224;2024-03-02T13:10:14;18.25;14.75;11.25
76049;PMS7003;64967;50.234;19.224;2024-03-02T13:12:42;14.75;14.75;11.75
76049;PMS7003;64967;50.234;19.224;2024-03-02T13:15:09;13.75;12.50;9.00
76049;PMS7003;64967;50.234;19.224;2024-03-02T13:17:39;13.50;12.50;10.75
76049;PMS7003;64967;50.234;19.224;2024-03-02T13:20:06;15.75;13.00;10.75
76049;PMS7003;64967;50.234;19.224;2024-03-02T13:22:37;16.50;13.00;11.00
76049;PMS7003;64967;50.234;19.224;2024-03-02T13:25:04;15.75;12.75;10.00
76049;PMS7003;64967;50.234;19.224;2024-03-02T13:27:33;15.75;13.50;9.25
76049;PMS7003;64967;50.234;19.224;2024-03-02T13:30:01;17.75;15.25;11.00
76049;PMS7003;64967;50.234;19.224;2024-03-02T13:32:29;15.25;13.50;11.00
76049;PMS7003;64967;50.234;19.224;2024-03-02T13:34:55;20.50;16.50;12.00
76049;PMS7003;64967;50.234;19.224;2024-03-02T13:37:28;15.00;15.00;11.00
76049;PMS7003;64967;50.234;19.224;2024-03-02T13:39:54;15.50;15.25;11.00
76049;PMS7003;64967;50.234;19.224;2024-03-02T13:42:21;17.50;14.50;10.00
76049;PMS7003;64967;50.234;19.224;2024-03-02T13:44:48;14.25;11.50;10.25
76049;PMS7003;64967;50.234;19.224;2024-03-02T13:47:17;19.00;16.00;12.00
76049;PMS7003;64967;50.234;19.224;2024-03-02T13:49:44;16.00;14.25;10.75
76049;PMS7003;64967;50.234;19.224;2024-03-02T13:52:13;18.00;15.75;11.50
76049;PMS7003;64967;50.234;19.224;2024-03-02T13:54:41;16.00;12.75;9.50
76049;PMS7003;64967;50.234;19.224;2024-03-02T13:57:09;10.00;9.75;8.25
76049;PMS7003;64967;50.234;19.224;2024-03-02T13:59:36;10.50;10.00;6.75
76049;PMS7003;64967;50.234;19.224;2024-03-02T14:02:06;10.50;8.50;7.75